Time;durP1;ratioP1;P1;durP2;ratioP2;P2;SDS_P1;SDS_P2;PMS_P1;PMS_P2;Temp;Humidity;BMP_temperature;BMP_pressure;BME280_temperature;BME280_humidity;BME280_pressure;Samples;Min_cycle;Max_cycle;Signal;HPM_P1;HPM_P2
2020/12/15 00:01:58;;;;;;;4.95;1.92;;;12.30;99.90;;;;;;5055108;28;20032;-91
2020/12/15 00:04:24;;;;;;;4.57;2.10;;;12.40;99.90;;;;;;5055158;28;20028;-91
2020/12/15 00:06:50;;;;;;;7.63;2.50;;;12.50;99.90;;;;;;5069928;28;20112;-91
2020/12/15 00:09:16;;;;;;;4.70;2.30;;;12.30;99.90;;;;;;5074967;28;20111;-91
2020/12/15 00:11:41;;;;;;;3.78;2.28;;;12.40;99.90;;;;;;5069499;28;20078;-91
2020/12/15 00:14:07;;;;;;;2.80;1.90;;;12.40;99.90;;;;;;5074834;28;20433;-91
2020/12/15 00:16:33;;;;;;;4.60;2.50;;;12.40;99.90;;;;;;5068484;28;20427;-92
2020/12/15 00:18:59;;;;;;;7.88;2.15;;;12.40;99.90;;;;;;5074718;28;20025;-91
2020/12/15 00:21:26;;;;;;;3.50;2.40;;;12.40;99.90;;;;;;5066476;28;20027;-91
2020/12/15 00:23:53;;;;;;;3.80;2.20;;;12.40;99.90;;;;;;5074795;28;20029;-91
2020/12/15 00:26:20;;;;;;;3.63;1.90;;;12.40;99.90;;;;;;5074621;28;20025;-91
2020/12/15 00:28:48;;;;;;;3.55;2.10;;;12.50;99.90;;;;;;5069911;28;20028;-91
2020/12/15 00:31:14;;;;;;;4.10;2.13;;;12.40;99.90;;;;;;5074670;28;20029;-91
2020/12/15 00:33:40;;;;;;;2.80;2.35;;;12.40;99.90;;;;;;5069165;28;20065;-92
2020/12/15 00:36:06;;;;;;;4.80;2.42;;;12.30;99.90;;;;;;5074338;28;20059;-91
2020/12/15 00:38:31;;;;;;;3.17;2.47;;;12.30;99.90;;;;;;5067541;28;20024;-91
2020/12/15 00:40:57;;;;;;;4.90;2.53;;;12.30;99.90;;;;;;5074359;28;20024;-91
2020/12/15 00:43:23;;;;;;;3.35;2.40;;;12.10;99.90;;;;;;5066258;28;20020;-91
2020/12/15 00:45:48;;;;;;;3.65;2.40;;;12.20;99.90;;;;;;5074227;28;20024;-91
2020/12/15 00:48:14;;;;;;;3.92;2.70;;;12.10;99.90;;;;;;5074298;28;20560;-91
2020/12/15 00:50:39;;;;;;;5.88;2.55;;;12.20;99.90;;;;;;5068260;28;20048;-91
2020/12/15 00:53:05;;;;;;;3.35;2.00;;;12.10;99.90;;;;;;5073577;28;20418;-91
2020/12/15 00:55:32;;;;;;;3.72;2.53;;;12.20;99.90;;;;;;5067121;28;20069;-91
2020/12/15 00:57:57;;;;;;;3.08;1.80;;;12.30;99.90;;;;;;5074007;28;20460;-91
2020/12/15 01:00:23;;;;;;;4.28;1.77;;;12.40;99.90;;;;;;5066056;28;20120;-91
2020/12/15 01:02:49;;;;;;;3.30;2.38;;;12.50;99.90;;;;;;5074175;28;20028;-92
2020/12/15 01:05:14;;;;;;;2.15;1.38;;;12.60;99.90;;;;;;5073752;28;20025;-91
2020/12/15 01:07:40;;;;;;;3.67;1.85;;;12.70;99.90;;;;;;5068017;28;20032;-92
2020/12/15 01:10:06;;;;;;;4.32;2.05;;;12.80;99.90;;;;;;5073787;28;20499;-91
2020/12/15 01:12:32;;;;;;;3.97;1.70;;;12.80;99.90;;;;;;5066921;28;20059;-91
2020/12/15 01:14:58;;;;;;;4.93;2.00;;;12.80;99.90;;;;;;5073545;28;20029;-91
2020/12/15 01:17:24;;;;;;;3.25;1.60;;;12.90;99.90;;;;;;5065969;28;20016;-91
2020/12/15 01:19:50;;;;;;;3.75;1.70;;;12.90;99.90;;;;;;5073968;28;20428;-91
2020/12/15 01:22:15;;;;;;;3.70;1.60;;;12.90;99.90;;;;;;5073368;28;20024;-91
2020/12/15 01:24:41;;;;;;;2.88;1.30;;;12.90;99.90;;;;;;5067728;28;20033;-91
2020/12/15 01:27:06;;;;;;;1.73;1.30;;;13.00;99.90;;;;;;5063634;28;20102;-91
2020/12/15 01:29:32;;;;;;;3.85;1.48;;;13.00;99.90;;;;;;5036695;28;20021;-91
2020/12/15 01:32:02;;;;;;;4.60;1.50;;;13.10;99.90;;;;;;5036788;28;20031;-91
2020/12/15 01:34:28;;;;;;;3.22;1.50;;;13.10;99.90;;;;;;5036849;28;20029;-91
2020/12/15 01:36:54;;;;;;;2.42;1.30;;;13.20;99.90;;;;;;5036488;28;20078;-91
2020/12/15 01:39:20;;;;;;;4.68;1.23;;;13.30;99.90;;;;;;5036671;28;20029;-91
2020/12/15 01:41:45;;;;;;;2.65;1.40;;;13.30;99.90;;;;;;5036410;28;20436;-91
2020/12/15 01:44:11;;;;;;;2.58;1.45;;;13.20;99.90;;;;;;5036728;28;20385;-91
2020/12/15 01:46:37;;;;;;;2.95;1.52;;;13.20;99.90;;;;;;5036694;28;20088;-91
2020/12/15 01:49:03;;;;;;;4.18;1.30;;;13.20;99.90;;;;;;5050743;28;20052;-91
2020/12/15 01:51:29;;;;;;;4.68;1.50;;;13.20;99.90;;;;;;5065765;28;20024;-91
2020/12/15 01:53:59;;;;;;;3.08;1.42;;;13.20;99.90;;;;;;5072678;28;20040;-91
2020/12/15 01:56:26;;;;;;;3.30;1.45;;;13.30;99.90;;;;;;5055601;28;20035;-91
2020/12/15 01:58:54;;;;;;;3.65;1.42;;;13.30;99.90;;;;;;5073158;28;20024;-91
2020/12/15 02:01:21;;;;;;;4.68;1.80;;;13.20;99.90;;;;;;5072726;28;20027;-91
2020/12/15 02:03:47;;;;;;;3.13;1.50;;;13.20;99.90;;;;;;5067233;28;20028;-91
2020/12/15 02:06:12;;;;;;;3.28;1.70;;;13.20;99.90;;;;;;5072922;28;20024;-92
2020/12/15 02:08:38;;;;;;;2.83;1.60;;;13.10;99.90;;;;;;5066842;28;20032;-91
2020/12/15 02:11:04;;;;;;;3.35;1.40;;;13.10;99.90;;;;;;5072867;28;20556;-91
2020/12/15 02:13:30;;;;;;;3.30;1.58;;;13.10;99.90;;;;;;5065746;28;20043;-92
2020/12/15 02:15:56;;;;;;;4.93;2.20;;;13.00;99.90;;;;;;5072390;28;20048;-91
2020/12/15 02:18:21;;;;;;;5.22;1.75;;;13.00;99.90;;;;;;5073142;28;20426;-91
2020/12/15 02:20:47;;;;;;;5.35;1.98;;;12.90;99.90;;;;;;5072724;28;20021;-91
2020/12/15 02:23:13;;;;;;;2.55;1.50;;;12.90;99.90;;;;;;5072653;28;20024;-91
2020/12/15 02:25:38;;;;;;;3.28;1.73;;;12.90;99.90;;;;;;5066708;28;20032;-92
2020/12/15 02:28:04;;;;;;;5.18;1.90;;;12.90;99.90;;;;;;5072446;28;20020;-91
2020/12/15 02:30:30;;;;;;;3.97;1.98;;;12.90;99.90;;;;;;5065625;28;20032;-91
2020/12/15 02:32:56;;;;;;;3.38;2.10;;;12.90;99.90;;;;;;5073983;28;20070;-91
2020/12/15 02:35:21;;;;;;;3.17;1.83;;;12.80;99.90;;;;;;5072749;28;20369;-91
2020/12/15 02:37:47;;;;;;;3.47;1.95;;;12.90;99.90;;;;;;5072407;28;20385;-91
2020/12/15 02:40:13;;;;;;;2.50;1.67;;;12.90;99.90;;;;;;5072586;28;20096;-92
2020/12/15 02:42:49;;;;;;;4.38;1.85;;;12.80;99.90;;;;;;5066474;28;20027;-91
2020/12/15 02:45:15;;;;;;;4.40;1.50;;;12.80;99.90;;;;;;5072450;28;20052;-91
2020/12/15 02:47:41;;;;;;;4.90;2.15;;;12.80;99.90;;;;;;5066863;28;20024;-90
2020/12/15 02:50:06;;;;;;;5.45;1.90;;;12.70;99.90;;;;;;5072357;28;20035;-91
2020/12/15 02:52:32;;;;;;;3.60;2.00;;;12.70;99.90;;;;;;5065334;28;20080;-91
2020/12/15 02:54:58;;;;;;;4.32;2.38;;;12.70;99.90;;;;;;5072025;28;20063;-91
2020/12/15 02:57:23;;;;;;;4.05;2.30;;;12.60;99.90;;;;;;5064373;28;20022;-91
2020/12/15 02:59:49;;;;;;;8.32;3.30;;;12.50;99.90;;;;;;5072127;28;20115;-91
2020/12/15 03:02:19;;;;;;;4.50;2.30;;;12.40;99.90;;;;;;5058090;28;20021;-91
2020/12/15 03:04:46;;;;;;;6.07;2.60;;;12.40;99.90;;;;;;5035811;28;20025;-92
2020/12/15 03:07:13;;;;;;;2.63;1.85;;;12.40;99.90;;;;;;5035863;28;20389;-91
2020/12/15 03:09:39;;;;;;;4.82;2.10;;;12.40;99.90;;;;;;5035783;28;20397;-92
2020/12/15 03:12:04;;;;;;;3.45;2.30;;;12.40;99.90;;;;;;5035526;28;20024;-91
2020/12/15 03:14:30;;;;;;;2.80;2.13;;;12.50;99.90;;;;;;5036779;28;20393;-91
2020/12/15 03:16:56;;;;;;;3.20;1.90;;;12.40;99.90;;;;;;5039443;28;20021;-91
2020/12/15 03:19:21;;;;;;;3.63;2.22;;;12.40;99.90;;;;;;5042511;28;20025;-91
2020/12/15 03:21:47;;;;;;;4.38;1.88;;;12.40;99.90;;;;;;5075778;28;20013;-91
2020/12/15 03:24:12;;;;;;;3.58;2.17;;;12.40;99.90;;;;;;5075887;28;20024;-92
2020/12/15 03:26:38;;;;;;;3.13;1.90;;;12.40;99.90;;;;;;5069870;28;20024;-92
2020/12/15 03:29:04;;;;;;;3.97;2.53;;;12.40;99.90;;;;;;5074949;28;20024;-91
2020/12/15 03:31:29;;;;;;;3.63;2.40;;;12.40;99.90;;;;;;5039010;28;20556;-92
2020/12/15 03:33:55;;;;;;;4.40;2.03;;;12.30;99.90;;;;;;5039314;28;20025;-92
2020/12/15 03:36:20;;;;;;;4.40;2.50;;;12.30;99.90;;;;;;5038872;28;20029;-91
2020/12/15 03:38:46;;;;;;;4.22;2.25;;;12.30;99.90;;;;;;5039105;28;20466;-91
2020/12/15 03:41:12;;;;;;;3.90;2.30;;;12.20;99.90;;;;;;5056141;28;20020;-91
2020/12/15 03:43:38;;;;;;;3.53;2.25;;;12.10;99.90;;;;;;5069313;28;20112;-91
2020/12/15 03:46:03;;;;;;;6.03;2.38;;;12.10;99.90;;;;;;5075597;28;20024;-91
2020/12/15 03:48:29;;;;;;;4.35;2.40;;;12.10;99.90;;;;;;5068326;28;20032;-91
2020/12/15 03:50:55;;;;;;;3.47;2.50;;;12.00;99.90;;;;;;5075163;28;20029;-91
2020/12/15 03:53:21;;;;;;;5.43;2.33;;;12.00;99.90;;;;;;5075391;28;20048;-92
2020/12/15 03:55:50;;;;;;;4.70;2.53;;;12.00;99.90;;;;;;5070358;28;20021;-91
2020/12/15 03:58:17;;;;;;;3.30;2.60;;;12.00;99.90;;;;;;5075603;28;20060;-91
2020/12/15 04:00:44;;;;;;;3.95;2.40;;;12.00;99.90;;;;;;5069981;28;20458;-91
2020/12/15 04:03:09;;;;;;;2.83;2.10;;;12.00;99.90;;;;;;5075477;28;20433;-91
2020/12/15 04:05:38;;;;;;;3.92;2.20;;;12.00;99.90;;;;;;5085683;28;20028;-91
2020/12/15 04:08:04;;;;;;;4.47;2.20;;;12.00;99.90;;;;;;5074978;28;20028;-92
2020/12/15 04:10:30;;;;;;;3.55;1.80;;;12.10;99.90;;;;;;5068232;28;20024;-92
2020/12/15 04:12:56;;;;;;;4.60;2.17;;;12.10;99.90;;;;;;5075010;28;20119;-91
2020/12/15 04:15:21;;;;;;;3.00;1.88;;;12.20;99.90;;;;;;5074843;28;20062;-91
2020/12/15 04:17:47;;;;;;;3.25;1.83;;;12.20;99.90;;;;;;5075078;28;20067;-91
2020/12/15 04:20:13;;;;;;;3.65;1.80;;;12.20;99.90;;;;;;5074955;28;20029;-91
2020/12/15 04:22:38;;;;;;;3.38;1.95;;;12.20;99.90;;;;;;5068563;28;20024;-91
2020/12/15 04:25:05;;;;;;;4.53;2.30;;;12.20;99.90;;;;;;5074750;28;20033;-91
2020/12/15 04:27:31;;;;;;;3.13;2.00;;;12.20;99.90;;;;;;5067170;28;20044;-91
2020/12/15 04:29:56;;;;;;;3.10;2.10;;;12.10;99.90;;;;;;5074376;28;20095;-92
2020/12/15 04:32:22;;;;;;;5.18;2.05;;;12.10;99.90;;;;;;5066485;28;20107;-91
2020/12/15 04:34:48;;;;;;;3.50;1.73;;;12.20;99.90;;;;;;5074709;28;20035;-91
2020/12/15 04:37:14;;;;;;;4.18;1.70;;;12.10;99.90;;;;;;5074556;28;20024;-91
2020/12/15 04:39:40;;;;;;;3.45;1.83;;;12.20;99.90;;;;;;5042649;28;20029;-92
2020/12/15 04:42:05;;;;;;;4.25;1.70;;;12.20;99.90;;;;;;5037764;28;20064;-91
2020/12/15 04:44:33;;;;;;;4.38;1.90;;;12.30;99.90;;;;;;5037844;28;20115;-91
2020/12/15 04:47:14;;;;;;;3.03;1.67;;;12.30;99.90;;;;;;5067699;28;20071;-94
2020/12/15 04:50:02;;;;;;;3.95;1.65;;;12.30;99.90;;;;;;5068740;28;20021;-91
2020/12/15 04:52:56;;;;;;;2.75;1.83;;;12.30;99.90;;;;;;5074003;28;20048;-92
2020/12/15 04:55:25;;;;;;;4.95;1.75;;;12.20;99.90;;;;;;5073918;28;20021;-91
2020/12/15 04:57:53;;;;;;;2.83;1.88;;;12.20;99.90;;;;;;5074202;28;20032;-91
2020/12/15 05:00:19;;;;;;;3.13;2.13;;;12.30;99.90;;;;;;5073930;28;20111;-92
2020/12/15 05:02:51;;;;;;;3.75;1.88;;;12.30;99.90;;;;;;5069060;28;20420;-91
2020/12/15 05:05:17;;;;;;;2.72;1.95;;;12.30;99.90;;;;;;5074477;28;20024;-91
2020/12/15 05:07:45;;;;;;;2.80;1.73;;;12.20;99.90;;;;;;5068473;28;20062;-91
2020/12/15 05:10:16;;;;;;;6.82;2.38;;;12.20;99.90;;;;;;5073795;28;20539;-91
2020/12/15 05:12:42;;;;;;;3.13;1.70;;;12.20;99.90;;;;;;5048292;28;20025;-91
2020/12/15 05:15:12;;;;;;;3.67;1.90;;;12.30;99.90;;;;;;5053963;28;20029;-91
2020/12/15 05:17:39;;;;;;;2.90;1.63;;;12.30;99.90;;;;;;5043479;28;20465;-91
2020/12/15 05:20:25;;;;;;;3.92;1.70;;;12.30;99.90;;;;;;5054138;28;20024;-92
2020/12/15 05:22:51;;;;;;;3.67;1.90;;;12.30;99.90;;;;;;5049343;28;20029;-91
2020/12/15 05:25:31;;;;;;;3.35;2.15;;;12.30;99.90;;;;;;5053502;28;20495;-91
2020/12/15 05:28:09;;;;;;;4.25;2.53;;;12.20;99.90;;;;;;5050107;28;20033;-92
2020/12/15 05:30:35;;;;;;;5.07;2.60;;;12.10;99.90;;;;;;5053308;28;20067;-92
2020/12/15 05:33:01;;;;;;;7.75;3.25;;;12.10;99.90;;;;;;5053557;28;20042;-91
2020/12/15 05:35:38;;;;;;;6.45;2.95;;;12.00;99.90;;;;;;5045984;28;20024;-92
2020/12/15 05:38:06;;;;;;;4.57;2.58;;;12.00;99.90;;;;;;5052283;28;20036;-92
2020/12/15 05:40:38;;;;;;;4.78;2.50;;;12.00;99.90;;;;;;5046562;28;20021;-91
2020/12/15 05:43:05;;;;;;;5.13;2.30;;;12.00;99.90;;;;;;5053194;28;20029;-94
2020/12/15 05:45:32;;;;;;;5.35;2.70;;;12.00;99.90;;;;;;5051265;28;20032;-93
2020/12/15 05:48:09;;;;;;;5.55;3.08;;;12.00;99.90;;;;;;5072792;28;20020;-93
2020/12/15 05:50:36;;;;;;;4.82;3.30;;;12.00;99.90;;;;;;5067272;28;20400;-93
2020/12/15 05:53:05;;;;;;;6.22;3.50;;;11.90;99.90;;;;;;5073037;28;20056;-92
2020/12/15 05:55:31;;;;;;;6.30;3.53;;;11.80;99.90;;;;;;5065107;28;20028;-92
2020/12/15 05:58:32;;;;;;;8.38;3.25;;;11.80;99.90;;;;;;5073031;28;20389;-93
2020/12/15 06:01:09;;;;;;;4.47;3.40;;;11.70;99.90;;;;;;5049928;28;20167;-94
2020/12/15 06:03:35;;;;;;;4.97;3.15;;;11.70;99.90;;;;;;5063066;28;20397;-94
2020/12/15 06:09:35;;;;;;;6.68;3.65;;;11.60;99.90;;;;;;5055988;28;20032;-92
2020/12/15 06:12:05;;;;;;;6.30;4.20;;;11.60;99.90;;;;;;5069899;28;20043;-93
2020/12/15 06:14:30;;;;;;;7.53;3.42;;;11.60;99.90;;;;;;5065156;28;20033;-93
2020/12/15 06:16:56;;;;;;;4.15;3.30;;;11.60;99.90;;;;;;5072020;28;20020;-91
2020/12/15 06:19:23;;;;;;;6.80;4.20;;;11.60;99.90;;;;;;5056233;28;20029;-92
2020/12/15 06:21:58;;;;;;;5.97;3.35;;;11.60;99.90;;;;;;5058873;28;20021;-93
2020/12/15 06:24:30;;;;;;;6.38;4.30;;;11.50;99.90;;;;;;5071893;28;20029;-93
2020/12/15 06:27:20;;;;;;;6.47;3.83;;;11.40;99.90;;;;;;5072512;28;20021;-93
2020/12/15 06:29:51;;;;;;;6.93;4.18;;;11.40;99.90;;;;;;5089194;28;20031;-93
2020/12/15 06:32:19;;;;;;;5.43;3.80;;;11.50;99.90;;;;;;5071941;28;20071;-93
2020/12/15 06:34:49;;;;;;;7.63;4.53;;;11.40;99.90;;;;;;5066996;28;20029;-93
2020/12/15 06:37:16;;;;;;;7.82;4.95;;;11.50;99.90;;;;;;5072065;28;20012;-93
2020/12/15 06:40:03;;;;;;;7.85;4.20;;;11.40;99.90;;;;;;5066464;28;20020;-93
2020/12/15 06:43:00;;;;;;;10.77;5.07;;;11.40;99.90;;;;;;5071353;28;20048;-93
2020/12/15 06:45:26;;;;;;;6.40;4.85;;;11.30;99.90;;;;;;5071451;28;20090;-93
2020/12/15 06:48:00;;;;;;;7.38;4.57;;;11.20;99.90;;;;;;5071717;28;20020;-93
2020/12/15 06:50:25;;;;;;;7.55;5.03;;;11.20;99.90;;;;;;5074743;28;20029;-93
2020/12/15 06:52:52;;;;;;;7.95;5.20;;;11.10;99.90;;;;;;5076045;28;20048;-94
2020/12/15 06:55:30;;;;;;;9.50;5.43;;;11.00;99.90;;;;;;5067772;28;20033;-93
2020/12/15 06:58:00;;;;;;;11.10;5.75;;;11.00;99.90;;;;;;5039318;28;20478;-93
2020/12/15 07:00:40;;;;;;;12.07;6.28;;;11.00;99.90;;;;;;5043698;28;20099;-93
2020/12/15 07:03:07;;;;;;;11.00;6.07;;;11.10;99.90;;;;;;5075576;28;20013;-93
2020/12/15 07:05:34;;;;;;;9.73;5.40;;;11.10;99.90;;;;;;5069527;28;20127;-93
2020/12/15 07:08:05;;;;;;;9.18;6.68;;;11.10;99.90;;;;;;5075619;28;20032;-93
2020/12/15 07:10:31;;;;;;;9.35;5.45;;;11.00;99.90;;;;;;5068571;28;20063;-93
2020/12/15 07:12:59;;;;;;;9.95;6.35;;;10.90;99.90;;;;;;5075955;28;20020;-93
2020/12/15 07:15:27;;;;;;;9.63;6.20;;;10.90;99.90;;;;;;5068124;28;20073;-94
2020/12/15 07:17:53;;;;;;;13.00;6.43;;;10.90;99.90;;;;;;5075889;28;20256;-93
2020/12/15 07:20:20;;;;;;;11.73;6.90;;;10.80;99.90;;;;;;5076078;28;20112;-93
2020/12/15 07:22:47;;;;;;;9.13;6.30;;;10.90;99.90;;;;;;5071427;28;20476;-94
2020/12/15 07:25:14;;;;;;;9.07;6.38;;;10.90;99.90;;;;;;5075773;28;20029;-93
2020/12/15 07:27:41;;;;;;;9.32;6.13;;;10.80;99.90;;;;;;5069291;28;20020;-93
2020/12/15 07:30:11;;;;;;;8.75;6.13;;;10.80;99.90;;;;;;5075734;28;20119;-93
2020/12/15 07:32:38;;;;;;;10.63;5.93;;;10.80;99.90;;;;;;5069432;28;20042;-93
2020/12/15 07:35:14;;;;;;;7.75;5.88;;;10.80;99.90;;;;;;5075730;28;20025;-93
2020/12/15 07:37:41;;;;;;;7.15;5.65;;;11.00;99.90;;;;;;5069821;28;20142;-93
2020/12/15 07:40:09;;;;;;;6.75;4.97;;;11.00;99.90;;;;;;5075695;28;20020;-94
2020/12/15 07:42:35;;;;;;;7.13;5.13;;;11.00;99.90;;;;;;5068983;28;20021;-94
2020/12/15 07:45:06;;;;;;;12.25;5.68;;;11.00;99.90;;;;;;5075590;28;20044;-94
2020/12/15 07:47:39;;;;;;;6.60;4.22;;;11.10;99.90;;;;;;5068196;28;20025;-94
2020/12/15 07:50:06;;;;;;;9.70;5.82;;;11.20;99.90;;;;;;5075577;28;20055;-93
2020/12/15 07:52:39;;;;;;;8.98;6.10;;;11.20;99.90;;;;;;5068112;28;20123;-93
2020/12/15 07:55:15;;;;;;;9.50;6.05;;;11.10;99.90;;;;;;5066115;28;20025;-93
2020/12/15 07:57:41;;;;;;;11.15;6.25;;;11.10;99.90;;;;;;5038156;28;20028;-94
2020/12/15 08:00:23;;;;;;;9.85;6.55;;;11.20;99.90;;;;;;5038686;28;20166;-93
2020/12/15 08:02:50;;;;;;;8.98;6.40;;;11.20;99.90;;;;;;5037682;28;20117;-93
2020/12/15 08:05:19;;;;;;;8.82;6.13;;;11.10;99.90;;;;;;5038045;28;20040;-93
2020/12/15 08:07:52;;;;;;;7.63;5.85;;;11.20;99.90;;;;;;5038918;28;20025;-93
2020/12/15 08:10:32;;;;;;;9.85;6.30;;;11.30;99.90;;;;;;5033310;28;20029;-93
2020/12/15 08:13:00;;;;;;;10.15;6.60;;;11.30;99.90;;;;;;5038301;28;20017;-93
2020/12/15 08:15:35;;;;;;;9.73;6.90;;;11.30;99.90;;;;;;5043049;28;20032;-93
2020/12/15 08:18:03;;;;;;;11.95;6.97;;;11.70;99.90;;;;;;5074819;28;20025;-93
2020/12/15 08:20:30;;;;;;;8.65;6.55;;;11.90;99.90;;;;;;5067299;28;20032;-93
2020/12/15 08:23:07;;;;;;;10.48;6.78;;;11.90;99.90;;;;;;5075092;28;20027;-94
2020/12/15 08:25:43;;;;;;;7.78;5.85;;;12.20;99.90;;;;;;5074522;28;20123;-93
2020/12/15 08:28:22;;;;;;;8.27;6.18;;;13.30;99.90;;;;;;5074312;28;20038;-94
2020/12/15 08:30:49;;;;;;;9.35;5.95;;;14.70;99.90;;;;;;5069943;28;20089;-93
2020/12/15 08:33:28;;;;;;;10.68;5.90;;;13.90;99.90;;;;;;5074922;28;20024;-94
2020/12/15 08:35:58;;;;;;;10.77;5.93;;;13.30;99.90;;;;;;5068231;28;20033;-95
2020/12/15 08:38:27;;;;;;;9.20;6.18;;;12.90;99.90;;;;;;5073929;28;20092;-93
2020/12/15 08:40:58;;;;;;;8.40;6.03;;;12.70;99.90;;;;;;5074209;28;20024;-94
2020/12/15 08:43:24;;;;;;;10.00;5.68;;;12.50;99.90;;;;;;5069644;28;20024;-92
2020/12/15 08:45:50;;;;;;;8.07;5.63;;;12.40;99.90;;;;;;5074314;28;20028;-94
2020/12/15 08:48:17;;;;;;;10.90;5.60;;;12.30;99.90;;;;;;5074546;28;20020;-96
2020/12/15 08:50:44;;;;;;;7.25;4.43;;;12.60;99.90;;;;;;5070977;28;20029;-94
2020/12/15 08:53:11;;;;;;;6.88;4.85;;;14.00;99.90;;;;;;5076188;28;20500;-96
2020/12/15 08:55:38;;;;;;;8.40;4.95;;;13.80;99.90;;;;;;5067725;28;20472;-92
2020/12/15 08:58:08;;;;;;;9.07;5.65;;;13.50;99.90;;;;;;5073339;28;20013;-91
2020/12/15 09:00:36;;;;;;;6.68;4.72;;;15.30;99.90;;;;;;5058582;28;20021;-92
2020/12/15 09:03:04;;;;;;;12.80;5.78;;;21.00;99.90;;;;;;5056188;28;20024;-94
2020/12/15 09:05:30;;;;;;;7.57;5.88;;;23.80;99.90;;;;;;5037293;28;20476;-94
2020/12/15 09:08:02;;;;;;;10.30;5.97;;;26.00;99.90;;;;;;5037152;28;20028;-94
2020/12/15 09:10:30;;;;;;;10.70;5.95;;;26.40;99.90;;;;;;5036908;28;20385;-93
2020/12/15 09:12:56;;;;;;;9.13;5.53;;;27.80;99.90;;;;;;5048921;28;20111;-93
2020/12/15 09:15:21;;;;;;;7.65;5.57;;;22.50;99.90;;;;;;5073217;28;20158;-93
2020/12/15 09:17:48;;;;;;;12.45;6.50;;;18.60;99.90;;;;;;5055517;28;20463;-93
2020/12/15 09:20:24;;;;;;;15.55;8.88;;;17.20;99.90;;;;;;5077879;28;20021;-96
2020/12/15 09:22:50;;;;;;;10.00;6.60;;;16.10;99.90;;;;;;5068343;28;20032;-93
2020/12/15 09:25:16;;;;;;;7.85;5.20;;;15.40;99.90;;;;;;5073284;28;20035;-92
2020/12/15 09:27:48;;;;;;;5.57;4.40;;;15.00;99.90;;;;;;5054797;28;20037;-92
2020/12/15 09:30:20;;;;;;;9.65;5.10;;;14.60;99.90;;;;;;5053514;28;20032;-92
2020/12/15 09:32:46;;;;;;;8.52;4.47;;;14.50;99.90;;;;;;5036435;28;20035;-93
2020/12/15 09:35:12;;;;;;;5.10;4.00;;;14.40;99.90;;;;;;5036709;28;20107;-93
2020/12/15 09:37:39;;;;;;;7.55;4.07;;;14.30;99.90;;;;;;5061068;28;20024;-93
2020/12/15 09:40:08;;;;;;;5.35;3.67;;;14.20;99.90;;;;;;5073227;28;20027;-93
2020/12/15 09:42:38;;;;;;;4.65;3.47;;;14.20;99.90;;;;;;5066653;28;20024;-93
2020/12/15 09:45:05;;;;;;;6.30;3.03;;;14.20;99.90;;;;;;5072731;28;20389;-93
2020/12/15 09:47:31;;;;;;;3.08;1.90;;;14.00;99.90;;;;;;5082791;28;20035;-94
2020/12/15 09:49:57;;;;;;;5.45;2.47;;;13.90;99.90;;;;;;5060882;28;20025;-93
2020/12/15 09:52:25;;;;;;;4.30;2.10;;;13.80;99.90;;;;;;5036430;28;20059;-93
2020/12/15 09:54:51;;;;;;;7.53;1.73;;;13.80;99.90;;;;;;5063849;28;20500;-93
2020/12/15 09:57:17;;;;;;;2.13;1.73;;;13.80;99.90;;;;;;5072559;28;20032;-93
2020/12/15 09:59:42;;;;;;;3.60;1.70;;;13.90;99.90;;;;;;5067568;28;20112;-93
2020/12/15 10:02:08;;;;;;;3.53;1.90;;;14.00;99.90;;;;;;5072606;28;20124;-96
2020/12/15 10:04:33;;;;;;;4.45;1.90;;;14.00;99.90;;;;;;5066245;28;20027;-92
2020/12/15 10:06:59;;;;;;;2.95;2.17;;;14.10;99.90;;;;;;5072546;28;20070;-95
2020/12/15 10:09:25;;;;;;;5.05;2.58;;;14.00;99.90;;;;;;5064966;28;20067;-94
2020/12/15 10:11:50;;;;;;;4.35;2.80;;;14.00;99.90;;;;;;5072316;28;20484;-92
2020/12/15 10:14:16;;;;;;;5.22;2.58;;;14.10;99.90;;;;;;5072583;28;20029;-93
2020/12/15 10:16:42;;;;;;;7.20;3.38;;;14.20;99.90;;;;;;5067073;28;20028;-93
2020/12/15 10:19:08;;;;;;;6.70;3.17;;;14.30;99.90;;;;;;5072447;28;20180;-93
2020/12/15 10:21:36;;;;;;;6.70;2.83;;;14.40;99.90;;;;;;5065915;28;20020;-94
2020/12/15 10:24:02;;;;;;;5.30;2.55;;;14.40;99.90;;;;;;5070869;28;20106;-92
2020/12/15 10:26:27;;;;;;;3.22;2.40;;;14.40;99.90;;;;;;5065065;28;20040;-93
2020/12/15 10:28:53;;;;;;;6.28;3.40;;;14.40;99.90;;;;;;5071371;28;20036;-91
2020/12/15 10:31:19;;;;;;;7.50;2.90;;;14.30;99.90;;;;;;5072015;28;20032;-92
2020/12/15 10:33:45;;;;;;;5.85;2.70;;;14.40;99.90;;;;;;5067286;28;20048;-92
2020/12/15 10:36:12;;;;;;;5.97;3.00;;;14.50;99.90;;;;;;5070560;28;20094;-91
2020/12/15 10:38:38;;;;;;;7.95;3.55;;;14.60;99.90;;;;;;5054085;28;20489;-93
2020/12/15 10:41:04;;;;;;;4.90;3.42;;;14.50;99.90;;;;;;5035503;28;20442;-93
2020/12/15 10:43:30;;;;;;;7.43;4.15;;;14.60;99.90;;;;;;5040873;28;20116;-92
2020/12/15 10:45:55;;;;;;;8.18;4.20;;;14.50;99.90;;;;;;5071629;28;20060;-92
2020/12/15 10:48:21;;;;;;;7.55;3.75;;;14.60;99.90;;;;;;5072074;28;20045;-94
2020/12/15 10:50:47;;;;;;;8.07;5.38;;;14.80;99.90;;;;;;5070560;28;20031;-95
2020/12/15 10:53:13;;;;;;;8.65;4.15;;;14.80;99.90;;;;;;5074651;28;20366;-94
2020/12/15 10:55:39;;;;;;;5.38;2.95;;;15.00;99.90;;;;;;5066725;28;20025;-94
2020/12/15 10:58:05;;;;;;;6.65;3.33;;;15.10;99.90;;;;;;5072578;28;20016;-94
2020/12/15 11:00:35;;;;;;;6.03;2.40;;;15.20;99.90;;;;;;5065782;28;20158;-94
2020/12/15 11:03:01;;;;;;;10.48;5.10;;;15.10;99.90;;;;;;5072622;28;20481;-95
2020/12/15 11:05:26;;;;;;;10.35;5.80;;;15.00;99.90;;;;;;5068469;28;20025;-96
2020/12/15 11:07:52;;;;;;;14.77;7.55;;;14.70;99.90;;;;;;5073881;28;20528;-96
2020/12/15 11:10:17;;;;;;;10.43;5.80;;;14.60;99.90;;;;;;5069553;28;20027;-95
2020/12/15 11:13:03;;;;;;;5.50;2.65;;;14.40;99.90;;;;;;5048202;28;20029;-96
2020/12/15 11:15:29;;;;;;;4.68;3.33;;;14.40;99.90;;;;;;5064995;28;20024;-95
2020/12/15 11:17:55;;;;;;;5.00;2.72;;;14.50;99.90;;;;;;5072648;28;20031;-95
2020/12/15 11:20:21;;;;;;;5.95;3.20;;;14.50;99.90;;;;;;5074152;28;20025;-95
2020/12/15 11:22:47;;;;;;;3.92;2.20;;;14.60;99.90;;;;;;5070460;28;20039;-94
2020/12/15 11:25:16;;;;;;;3.05;2.00;;;14.50;99.90;;;;;;5064991;28;20025;-93
2020/12/15 11:27:41;;;;;;;3.42;2.38;;;14.40;99.90;;;;;;5037139;28;20025;-96
2020/12/15 11:30:14;;;;;;;2.72;1.52;;;14.40;99.90;;;;;;5039625;28;20029;-96
2020/12/15 11:32:47;;;;;;;6.35;4.00;;;14.40;99.90;;;;;;5039214;28;20025;-96
2020/12/15 11:35:15;;;;;;;5.35;2.95;;;14.50;99.90;;;;;;5039382;28;20120;-96
2020/12/15 11:37:43;;;;;;;5.63;2.70;;;14.40;99.90;;;;;;5042061;28;20029;-96
2020/12/15 11:40:10;;;;;;;4.57;3.40;;;14.30;99.90;;;;;;5039734;28;20057;-88
2020/12/15 11:42:40;;;;;;;5.63;2.50;;;14.20;99.90;;;;;;5055015;28;20028;-87
2020/12/15 11:45:07;;;;;;;5.35;2.70;;;14.10;99.90;;;;;;5065671;28;20031;-92
2020/12/15 11:47:33;;;;;;;6.97;2.78;;;14.00;99.90;;;;;;5067550;28;20046;-91
2020/12/15 11:50:00;;;;;;;5.50;3.10;;;13.90;99.90;;;;;;5073965;28;20028;-91
2020/12/15 11:52:27;;;;;;;5.70;3.35;;;13.80;99.90;;;;;;5065766;28;20064;-90
2020/12/15 11:54:52;;;;;;;4.05;2.90;;;13.90;99.90;;;;;;5075804;28;20120;-94
2020/12/15 11:57:18;;;;;;;6.40;3.42;;;13.80;99.90;;;;;;5075849;28;20085;-95
2020/12/15 11:59:44;;;;;;;4.05;3.10;;;13.90;99.90;;;;;;5069804;28;20097;-95
2020/12/15 12:02:13;;;;;;;5.47;2.70;;;13.90;99.90;;;;;;5074593;28;20013;-91
2020/12/15 12:04:39;;;;;;;6.93;2.95;;;13.90;99.90;;;;;;5068922;28;20050;-93
2020/12/15 12:07:09;;;;;;;4.50;2.40;;;13.90;99.90;;;;;;5075124;28;20025;-93
2020/12/15 12:09:35;;;;;;;4.68;2.50;;;14.00;99.90;;;;;;5068668;28;20058;-93
2020/12/15 12:12:02;;;;;;;4.85;1.88;;;13.90;99.90;;;;;;5074584;28;20017;-93
2020/12/15 12:14:28;;;;;;;10.63;5.95;;;14.00;99.90;;;;;;5067156;28;20032;-92
2020/12/15 12:16:53;;;;;;;7.75;5.05;;;14.00;99.90;;;;;;5074884;28;20021;-93
2020/12/15 12:19:19;;;;;;;5.75;3.67;;;13.90;99.90;;;;;;5074158;28;20055;-93
2020/12/15 12:21:44;;;;;;;5.82;4.30;;;13.80;99.90;;;;;;5068974;28;20074;-93
2020/12/15 12:24:11;;;;;;;8.88;4.85;;;13.90;99.90;;;;;;5074418;28;20509;-93
2020/12/15 12:26:37;;;;;;;4.43;2.15;;;13.90;99.90;;;;;;5067726;28;20035;-93
2020/12/15 12:29:02;;;;;;;4.88;2.40;;;13.80;99.90;;;;;;5074411;28;20028;-93
2020/12/15 12:31:28;;;;;;;3.50;2.20;;;13.80;99.90;;;;;;5066311;28;20377;-93
2020/12/15 12:33:54;;;;;;;6.43;2.78;;;13.80;99.90;;;;;;5074067;28;20405;-93
2020/12/15 12:36:19;;;;;;;7.80;2.78;;;13.80;99.90;;;;;;5073295;28;20431;-93
2020/12/15 12:38:45;;;;;;;2.88;2.00;;;13.70;99.90;;;;;;5068961;28;20071;-93
2020/12/15 12:41:15;;;;;;;2.55;1.80;;;13.60;99.90;;;;;;5074040;28;20078;-93
2020/12/15 12:43:42;;;;;;;4.70;1.83;;;13.50;99.90;;;;;;5068459;28;20480;-93
2020/12/15 12:46:08;;;;;;;6.80;4.40;;;13.50;99.90;;;;;;5073794;28;20028;-93
2020/12/15 12:48:33;;;;;;;5.25;4.18;;;13.50;99.90;;;;;;5060347;28;20566;-93
2020/12/15 12:50:59;;;;;;;5.32;2.90;;;13.50;99.90;;;;;;5064709;28;20068;-93
2020/12/15 12:53:24;;;;;;;3.88;3.33;;;13.50;99.90;;;;;;5065610;28;20052;-93